THY1TS LTCG-UEEE
Flight info
| Callsign | THY1TS |
|---|---|
| Flight time | N/A |
| Altitude | 34000 |
| Route | NIVAX UR114 TUDEK B950 KARAT L91 NZ B145 ER G128 MOR R720 DAFOS P135 ANATU L992 DOSUM T377 SALER N992 NH G356 DEM G370 ABGUR ABGUR6D |
| Aircraft | B77W/H-SDE1E2E3FGHIJ2J3J4J5M1RWXY/LB1D1 |
Departure
| Time | 2026-04-27 23:27 |
|---|---|
| Airport | Trabzon International Airport (LTCG) |
Arrival
| Time | N/A |
|---|---|
| Airport | Platon Oyunsky Yakutsk International Airport (UEEE) |
| Time | Latitude | Longitude | Altitude | Speed | Heading |
|---|---|---|---|---|---|
| 2026-04-27 23:14 | 40.99420 | 39.78571 | 97 ft | 0 kts | 202° |
| 2026-04-27 23:21 | 40.99426 | 39.78574 | 120 ft | 2 kts | 202° |
| 2026-04-27 23:21 | 40.99441 | 39.78583 | 115 ft | 2 kts | 205° |
| 2026-04-27 23:21 | 40.99456 | 39.78593 | 117 ft | 2 kts | 213° |
| 2026-04-27 23:22 | 40.99468 | 39.78607 | 115 ft | 2 kts | 249° |
| 2026-04-27 23:22 | 40.99469 | 39.78626 | 115 ft | 1 kts | 290° |
| 2026-04-27 23:22 | 40.99468 | 39.78630 | 115 ft | 0 kts | 291° |
| 2026-04-27 23:23 | 40.99472 | 39.78618 | 120 ft | 10 kts | 291° |
| 2026-04-27 23:23 | 40.99514 | 39.78480 | 116 ft | 17 kts | 292° |
| 2026-04-27 23:23 | 40.99560 | 39.78333 | 116 ft | 17 kts | 292° |
| 2026-04-27 23:24 | 40.99604 | 39.78187 | 116 ft | 17 kts | 292° |
| 2026-04-27 23:24 | 40.99650 | 39.78040 | 117 ft | 17 kts | 292° |
| 2026-04-27 23:24 | 40.99695 | 39.77896 | 117 ft | 17 kts | 292° |
| 2026-04-27 23:24 | 40.99743 | 39.77742 | 113 ft | 20 kts | 292° |
| 2026-04-27 23:25 | 40.99796 | 39.77574 | 111 ft | 20 kts | 295° |
| 2026-04-27 23:25 | 40.99891 | 39.77498 | 113 ft | 1 kts | 14° |
| 2026-04-27 23:25 | 40.99892 | 39.77498 | 114 ft | 0 kts | 14° |
| 2026-04-27 23:26 | 40.99924 | 39.77518 | 112 ft | 10 kts | 33° |
| 2026-04-27 23:26 | 40.99930 | 39.77600 | 112 ft | 19 kts | 106° |
| 2026-04-27 23:26 | 40.99799 | 39.78035 | 109 ft | 90 kts | 112° |
| 2026-04-27 23:27 | 40.99462 | 39.79119 | 108 ft | 162 kts | 112° |
| 2026-04-27 23:27 | 40.98976 | 39.80662 | 443 ft | 189 kts | 112° |
| 2026-04-27 23:27 | 40.98582 | 39.82392 | 938 ft | 203 kts | 88° |
| 2026-04-27 23:27 | 40.98986 | 39.84216 | 1555 ft | 211 kts | 72° |
| 2026-04-27 23:28 | 40.99058 | 39.86157 | 2030 ft | 221 kts | 101° |
| 2026-04-27 23:28 | 40.98957 | 39.88267 | 2200 ft | 242 kts | 74° |
| 2026-04-27 23:28 | 40.99847 | 39.90164 | 2808 ft | 250 kts | 41° |
| 2026-04-27 23:28 | 41.01357 | 39.91379 | 3399 ft | 263 kts | 20° |
| 2026-04-27 23:29 | 41.03225 | 39.91967 | 3644 ft | 290 kts | 9° |
| 2026-04-27 23:29 | 41.05285 | 39.92383 | 3882 ft | 317 kts | 9° |
| 2026-04-27 23:29 | 41.07523 | 39.92837 | 4401 ft | 332 kts | 9° |
| 2026-04-27 23:29 | 41.09853 | 39.93296 | 5136 ft | 341 kts | 9° |
| 2026-04-27 23:30 | 41.12226 | 39.93754 | 5997 ft | 345 kts | 9° |
| 2026-04-27 23:30 | 41.14610 | 39.94210 | 6880 ft | 348 kts | 9° |
| 2026-04-27 23:30 | 41.17029 | 39.94671 | 7699 ft | 352 kts | 8° |
| 2026-04-27 23:30 | 41.19463 | 39.95136 | 8534 ft | 355 kts | 8° |
| 2026-04-27 23:31 | 41.21916 | 39.95605 | 9377 ft | 358 kts | 8° |
| 2026-04-27 23:31 | 41.24398 | 39.96081 | 10145 ft | 363 kts | 7° |
| 2026-04-27 23:31 | 41.26887 | 39.96558 | 10839 ft | 366 kts | 7° |
| 2026-04-27 23:31 | 41.29417 | 39.96640 | 11405 ft | 369 kts | 349° |
| 2026-04-27 23:32 | 41.31820 | 39.95423 | 12173 ft | 373 kts | 328° |
| 2026-04-27 23:32 | 41.33819 | 39.93228 | 13140 ft | 375 kts | 311° |
| 2026-04-27 23:32 | 41.35366 | 39.90423 | 13949 ft | 379 kts | 304° |
| 2026-04-27 23:32 | 41.36835 | 39.87462 | 14689 ft | 386 kts | 303° |
| 2026-04-27 23:33 | 41.38302 | 39.84467 | 15602 ft | 387 kts | 303° |
| 2026-04-27 23:33 | 41.39784 | 39.81465 | 16484 ft | 389 kts | 303° |
| 2026-04-27 23:33 | 41.41285 | 39.78462 | 17331 ft | 392 kts | 303° |
| 2026-04-27 23:33 | 41.42821 | 39.75415 | 18131 ft | 397 kts | 304° |
| 2026-04-27 23:34 | 41.44373 | 39.72350 | 18865 ft | 401 kts | 303° |
| 2026-04-27 23:34 | 41.45948 | 39.69243 | 19576 ft | 405 kts | 303° |
| 2026-04-27 23:34 | 41.47625 | 39.66229 | 20183 ft | 408 kts | 312° |
| 2026-04-27 23:34 | 41.49813 | 39.63832 | 20747 ft | 417 kts | 326° |
| 2026-04-27 23:35 | 41.52462 | 39.62090 | 21445 ft | 422 kts | 339° |
| 2026-04-27 23:35 | 41.55278 | 39.61121 | 22101 ft | 427 kts | 345° |
| 2026-04-27 23:35 | 41.58195 | 39.60262 | 22699 ft | 432 kts | 345° |
| 2026-04-27 23:35 | 41.61133 | 39.59348 | 23312 ft | 436 kts | 343° |
| 2026-04-27 23:36 | 41.64097 | 39.58379 | 23922 ft | 440 kts | 343° |
| 2026-04-27 23:36 | 41.67086 | 39.57389 | 24455 ft | 444 kts | 343° |
| 2026-04-27 23:36 | 41.70096 | 39.56398 | 24963 ft | 447 kts | 343° |
| 2026-04-27 23:36 | 41.73128 | 39.55403 | 25472 ft | 451 kts | 343° |
| 2026-04-27 23:37 | 41.76188 | 39.54400 | 25966 ft | 454 kts | 343° |
| 2026-04-27 23:37 | 41.79270 | 39.53388 | 26449 ft | 458 kts | 343° |
| 2026-04-27 23:37 | 41.82375 | 39.52367 | 26937 ft | 461 kts | 343° |
| 2026-04-27 23:37 | 41.85495 | 39.51338 | 27397 ft | 464 kts | 342° |
| 2026-04-27 23:38 | 41.88643 | 39.50291 | 27845 ft | 467 kts | 342° |
| 2026-04-27 23:38 | 41.91814 | 39.49230 | 28282 ft | 471 kts | 342° |
| 2026-04-27 23:38 | 41.95009 | 39.48159 | 28712 ft | 474 kts | 342° |
| 2026-04-27 23:38 | 41.98219 | 39.47082 | 29115 ft | 477 kts | 342° |
| 2026-04-27 23:39 | 42.01449 | 39.45998 | 29492 ft | 480 kts | 342° |
| 2026-04-27 23:39 | 42.04696 | 39.44909 | 29851 ft | 482 kts | 342° |
| 2026-04-27 23:39 | 42.07970 | 39.43810 | 30198 ft | 485 kts | 342° |
| 2026-04-27 23:39 | 42.11210 | 39.42721 | 30560 ft | 485 kts | 342° |
| 2026-04-27 23:40 | 42.14481 | 39.41622 | 31001 ft | 484 kts | 342° |
| 2026-04-27 23:40 | 42.17738 | 39.40526 | 31435 ft | 482 kts | 342° |
| 2026-04-27 23:40 | 42.21018 | 39.39473 | 31838 ft | 483 kts | 343° |
| 2026-04-27 23:40 | 42.24298 | 39.38573 | 32191 ft | 484 kts | 345° |
| 2026-04-27 23:41 | 42.27631 | 39.37730 | 32565 ft | 483 kts | 345° |
| 2026-04-27 23:41 | 42.30928 | 39.36907 | 32943 ft | 483 kts | 345° |
| 2026-04-27 23:41 | 42.34235 | 39.36067 | 33295 ft | 482 kts | 345° |
| 2026-04-27 23:41 | 42.37523 | 39.35211 | 33655 ft | 482 kts | 344° |
| 2026-04-27 23:42 | 42.40769 | 39.34351 | 34008 ft | 481 kts | 344° |
| 2026-04-27 23:42 | 42.44049 | 39.33472 | 34201 ft | 484 kts | 344° |
| 2026-04-27 23:42 | 42.50678 | 39.31688 | 34238 ft | 485 kts | 344° |
| 2026-04-27 23:43 | 42.57232 | 39.29930 | 34239 ft | 479 kts | 344° |
| 2026-04-27 23:43 | 42.63781 | 39.28166 | 34254 ft | 478 kts | 343° |
| 2026-04-27 23:44 | 42.70417 | 39.27049 | 34251 ft | 485 kts | 354° |
| 2026-04-27 23:44 | 42.77213 | 39.27362 | 34259 ft | 489 kts | 358° |
| 2026-04-27 23:45 | 42.84021 | 39.27830 | 34257 ft | 490 kts | 358° |
| 2026-04-27 23:45 | 42.90831 | 39.28242 | 34254 ft | 490 kts | 357° |
| 2026-04-27 23:46 | 42.97611 | 39.28615 | 34255 ft | 490 kts | 357° |
| 2026-04-27 23:46 | 43.04432 | 39.28984 | 34255 ft | 491 kts | 357° |
| 2026-04-27 23:47 | 43.11250 | 39.29358 | 34243 ft | 490 kts | 357° |
| 2026-04-27 23:47 | 43.18076 | 39.29734 | 34241 ft | 490 kts | 357° |
| 2026-04-27 23:48 | 43.24882 | 39.30111 | 34246 ft | 490 kts | 357° |
| 2026-04-27 23:48 | 43.31690 | 39.30490 | 34240 ft | 489 kts | 357° |
| 2026-04-27 23:49 | 43.38504 | 39.30875 | 34247 ft | 489 kts | 356° |
| 2026-04-27 23:49 | 43.45262 | 39.31255 | 34246 ft | 489 kts | 356° |
| 2026-04-27 23:50 | 43.52068 | 39.31631 | 34246 ft | 489 kts | 356° |
| 2026-04-27 23:50 | 43.58868 | 39.32006 | 34251 ft | 489 kts | 356° |
| 2026-04-27 23:51 | 43.65663 | 39.32384 | 34252 ft | 489 kts | 356° |
| 2026-04-27 23:51 | 43.72468 | 39.32763 | 34256 ft | 489 kts | 356° |
| 2026-04-27 23:52 | 43.79268 | 39.33143 | 34259 ft | 489 kts | 356° |
| 2026-04-27 23:52 | 43.86032 | 39.33521 | 34255 ft | 489 kts | 356° |
| 2026-04-27 23:53 | 43.92850 | 39.34133 | 34261 ft | 494 kts | 2° |
| 2026-04-27 23:53 | 43.99661 | 39.35758 | 34269 ft | 497 kts | 4° |
| 2026-04-27 23:54 | 44.06465 | 39.37488 | 34271 ft | 497 kts | 4° |
| 2026-04-27 23:54 | 44.13278 | 39.39160 | 34265 ft | 497 kts | 4° |
| 2026-04-27 23:55 | 44.20092 | 39.40801 | 34268 ft | 497 kts | 3° |
| 2026-04-27 23:55 | 44.26904 | 39.42446 | 34266 ft | 497 kts | 3° |
| 2026-04-27 23:56 | 44.32568 | 39.43820 | 34283 ft | 497 kts | 3° |
| 2026-04-27 23:56 | 44.39384 | 39.45421 | 34274 ft | 495 kts | 1° |
| 2026-04-27 23:57 | 44.47324 | 39.46835 | 34263 ft | 494 kts | 0° |
| 2026-04-27 23:57 | 44.53033 | 39.47890 | 34261 ft | 494 kts | 1° |
| 2026-04-27 23:58 | 44.59842 | 39.49369 | 34262 ft | 495 kts | 3° |
| 2026-04-27 23:58 | 44.66614 | 39.50931 | 34257 ft | 495 kts | 3° |
| 2026-04-27 23:59 | 44.73417 | 39.52475 | 34260 ft | 495 kts | 2° |
| 2026-04-27 23:59 | 44.80224 | 39.54001 | 34251 ft | 495 kts | 2° |
| 2026-04-28 00:00 | 44.87031 | 39.55531 | 34249 ft | 495 kts | 2° |
| 2026-04-28 00:00 | 44.93835 | 39.57065 | 34241 ft | 494 kts | 2° |
| 2026-04-28 00:01 | 45.00590 | 39.59124 | 34239 ft | 499 kts | 9° |
| 2026-04-28 00:01 | 45.07296 | 39.61740 | 34238 ft | 499 kts | 9° |
| 2026-04-28 00:02 | 45.13961 | 39.64301 | 34229 ft | 499 kts | 8° |
| 2026-04-28 00:02 | 45.20667 | 39.66863 | 34224 ft | 500 kts | 11° |
| 2026-04-28 00:03 | 45.27172 | 39.70547 | 34236 ft | 506 kts | 19° |
| 2026-04-28 00:03 | 45.33546 | 39.74842 | 34223 ft | 507 kts | 20° |
| 2026-04-28 00:04 | 45.43125 | 39.81173 | 34220 ft | 506 kts | 19° |
| 2026-04-28 00:05 | 45.49519 | 39.85363 | 34219 ft | 506 kts | 19° |
| 2026-04-28 00:05 | 45.55916 | 39.89574 | 34224 ft | 506 kts | 19° |
| 2026-04-28 00:06 | 45.62318 | 39.93802 | 34215 ft | 506 kts | 19° |
| 2026-04-28 00:06 | 45.68714 | 39.98035 | 34218 ft | 506 kts | 19° |
| 2026-04-28 00:07 | 45.75070 | 40.02254 | 34217 ft | 506 kts | 19° |
| 2026-04-28 00:07 | 45.81460 | 40.06505 | 34212 ft | 506 kts | 19° |
| 2026-04-28 00:08 | 45.87836 | 40.10817 | 34209 ft | 507 kts | 21° |
| 2026-04-28 00:08 | 45.94093 | 40.15505 | 34212 ft | 508 kts | 23° |
| 2026-04-28 00:09 | 46.00334 | 40.20286 | 34209 ft | 507 kts | 22° |
| 2026-04-28 00:09 | 46.06584 | 40.25014 | 34204 ft | 507 kts | 22° |
| 2026-04-28 00:10 | 46.12842 | 40.29722 | 34201 ft | 507 kts | 22° |
| 2026-04-28 00:10 | 46.19094 | 40.34435 | 34206 ft | 507 kts | 22° |
| 2026-04-28 00:11 | 46.25314 | 40.39142 | 34202 ft | 507 kts | 22° |
| 2026-04-28 00:11 | 46.31564 | 40.43885 | 34206 ft | 508 kts | 22° |
| 2026-04-28 00:12 | 46.37812 | 40.48706 | 34194 ft | 509 kts | 24° |
| 2026-04-28 00:12 | 46.43958 | 40.53815 | 34181 ft | 510 kts | 25° |
| 2026-04-28 00:13 | 46.50110 | 40.58955 | 34190 ft | 510 kts | 25° |
| 2026-04-28 00:13 | 46.56286 | 40.64032 | 34188 ft | 509 kts | 22° |
| 2026-04-28 00:14 | 46.62748 | 40.67977 | 34179 ft | 500 kts | 11° |
| 2026-04-28 00:14 | 46.69438 | 40.70866 | 34186 ft | 501 kts | 11° |
| 2026-04-28 00:15 | 46.76116 | 40.73777 | 34180 ft | 502 kts | 11° |
| 2026-04-28 00:15 | 46.82759 | 40.76764 | 34180 ft | 503 kts | 11° |
| 2026-04-28 00:16 | 46.89446 | 40.79783 | 34176 ft | 503 kts | 11° |
| 2026-04-28 00:16 | 46.96134 | 40.82804 | 34174 ft | 503 kts | 11° |
| 2026-04-28 00:17 | 47.02824 | 40.85833 | 34179 ft | 503 kts | 11° |
| 2026-04-28 00:17 | 47.09498 | 40.88864 | 34173 ft | 502 kts | 11° |
| 2026-04-28 00:18 | 47.16168 | 40.91902 | 34163 ft | 502 kts | 11° |
| 2026-04-28 00:18 | 47.22849 | 40.94953 | 34155 ft | 502 kts | 12° |
| 2026-04-28 00:19 | 47.29512 | 40.98004 | 34160 ft | 501 kts | 12° |
| 2026-04-28 00:19 | 47.36190 | 41.01070 | 34164 ft | 501 kts | 12° |
| 2026-04-28 00:20 | 47.42796 | 41.04109 | 34166 ft | 502 kts | 12° |
| 2026-04-28 00:20 | 47.49477 | 41.07188 | 34160 ft | 502 kts | 12° |
| 2026-04-28 00:21 | 47.56152 | 41.10302 | 34164 ft | 504 kts | 14° |
| 2026-04-28 00:21 | 47.62585 | 41.14644 | 34160 ft | 514 kts | 26° |
| 2026-04-28 00:22 | 47.68706 | 41.20205 | 34162 ft | 515 kts | 27° |
| 2026-04-28 00:22 | 47.74823 | 41.25773 | 34155 ft | 515 kts | 26° |
| 2026-04-28 00:23 | 47.80973 | 41.31270 | 34156 ft | 516 kts | 26° |
| 2026-04-28 00:23 | 47.87088 | 41.36775 | 34148 ft | 517 kts | 27° |
| 2026-04-28 00:24 | 47.93230 | 41.42363 | 34153 ft | 518 kts | 27° |
| 2026-04-28 00:24 | 47.99385 | 41.47979 | 34146 ft | 518 kts | 27° |
| 2026-04-28 00:25 | 48.05538 | 41.53601 | 34143 ft | 519 kts | 27° |
| 2026-04-28 00:25 | 48.11700 | 41.59246 | 34146 ft | 520 kts | 27° |
| 2026-04-28 00:26 | 48.17866 | 41.64910 | 34136 ft | 520 kts | 27° |
| 2026-04-28 00:26 | 48.24039 | 41.70599 | 34139 ft | 521 kts | 27° |
| 2026-04-28 00:27 | 48.30225 | 41.76315 | 34131 ft | 522 kts | 27° |
| 2026-04-28 00:27 | 48.36297 | 41.82333 | 34130 ft | 526 kts | 33° |
| 2026-04-28 00:28 | 48.42021 | 41.89253 | 34122 ft | 528 kts | 35° |
| 2026-04-28 00:28 | 48.47704 | 41.96271 | 34122 ft | 528 kts | 35° |
| 2026-04-28 00:29 | 48.53418 | 42.03262 | 34123 ft | 529 kts | 34° |
| 2026-04-28 00:29 | 48.59114 | 42.10196 | 34110 ft | 529 kts | 34° |
| 2026-04-28 00:30 | 48.64846 | 42.17187 | 34114 ft | 530 kts | 34° |
| 2026-04-28 00:30 | 48.70586 | 42.24217 | 34116 ft | 531 kts | 34° |
| 2026-04-28 00:31 | 48.76330 | 42.31277 | 34108 ft | 532 kts | 34° |
| 2026-04-28 00:31 | 48.82081 | 42.38368 | 34099 ft | 532 kts | 34° |
| 2026-04-28 00:32 | 48.86851 | 42.44264 | 34104 ft | 533 kts | 34° |
| 2026-04-28 00:32 | 48.93582 | 42.52610 | 34100 ft | 533 kts | 34° |
| 2026-04-28 00:33 | 48.99291 | 42.59711 | 34094 ft | 534 kts | 34° |
| 2026-04-28 00:33 | 49.05045 | 42.66890 | 34090 ft | 535 kts | 34° |
| 2026-04-28 00:34 | 49.10804 | 42.74100 | 34085 ft | 535 kts | 34° |
| 2026-04-28 00:34 | 49.16563 | 42.81334 | 34083 ft | 536 kts | 34° |
| 2026-04-28 00:35 | 49.22325 | 42.88593 | 34084 ft | 537 kts | 34° |
| 2026-04-28 00:35 | 49.28093 | 42.95883 | 34063 ft | 538 kts | 34° |
| 2026-04-28 00:36 | 49.33825 | 43.03150 | 34058 ft | 539 kts | 34° |
| 2026-04-28 00:36 | 49.39592 | 43.10484 | 34061 ft | 540 kts | 34° |
| 2026-04-28 00:37 | 49.45386 | 43.17876 | 34057 ft | 541 kts | 34° |
| 2026-04-28 00:37 | 49.51176 | 43.25285 | 34052 ft | 542 kts | 34° |
| 2026-04-28 00:38 | 49.56965 | 43.32718 | 34045 ft | 543 kts | 34° |
| 2026-04-28 00:38 | 49.62779 | 43.40207 | 34043 ft | 544 kts | 34° |
| 2026-04-28 00:39 | 49.68598 | 43.47727 | 34038 ft | 544 kts | 34° |
| 2026-04-28 00:39 | 49.74407 | 43.55259 | 34033 ft | 545 kts | 35° |
| 2026-04-28 00:40 | 49.80178 | 43.62764 | 34031 ft | 545 kts | 35° |
| 2026-04-28 00:40 | 49.85986 | 43.70343 | 34017 ft | 546 kts | 35° |
| 2026-04-28 00:41 | 49.91788 | 43.77938 | 34020 ft | 546 kts | 35° |
| 2026-04-28 00:41 | 49.97600 | 43.85572 | 34016 ft | 546 kts | 35° |
| 2026-04-28 00:42 | 50.02420 | 43.91921 | 34011 ft | 546 kts | 36° |
| 2026-04-28 00:42 | 50.08211 | 43.99573 | 33997 ft | 546 kts | 36° |
| 2026-04-28 00:43 | 50.13997 | 44.07246 | 33998 ft | 546 kts | 36° |
| 2026-04-28 00:43 | 50.19774 | 44.14927 | 33994 ft | 545 kts | 36° |
| 2026-04-28 00:44 | 50.25543 | 44.22629 | 33993 ft | 545 kts | 36° |
| 2026-04-28 00:44 | 50.31304 | 44.30352 | 33987 ft | 545 kts | 36° |
| 2026-04-28 00:45 | 50.37066 | 44.38102 | 33980 ft | 545 kts | 37° |
| 2026-04-28 00:45 | 50.42820 | 44.45866 | 33973 ft | 546 kts | 37° |
| 2026-04-28 00:46 | 50.48520 | 44.53580 | 33968 ft | 546 kts | 37° |
| 2026-04-28 00:46 | 50.54263 | 44.61381 | 33963 ft | 546 kts | 37° |
| 2026-04-28 00:47 | 50.60012 | 44.69216 | 33959 ft | 546 kts | 37° |
| 2026-04-28 00:47 | 50.65751 | 44.77066 | 33949 ft | 547 kts | 37° |
| 2026-04-28 00:48 | 50.71505 | 44.84961 | 33945 ft | 547 kts | 37° |
| 2026-04-28 00:48 | 50.77245 | 44.92863 | 33944 ft | 547 kts | 38° |
| 2026-04-28 00:49 | 50.82980 | 45.00785 | 33933 ft | 548 kts | 38° |
| 2026-04-28 00:49 | 50.88707 | 45.08723 | 33928 ft | 548 kts | 38° |
| 2026-04-28 00:50 | 50.94448 | 45.16709 | 33926 ft | 548 kts | 38° |
| 2026-04-28 00:50 | 51.00161 | 45.24681 | 33924 ft | 548 kts | 38° |
| 2026-04-28 00:51 | 51.05821 | 45.32610 | 33920 ft | 548 kts | 38° |
| 2026-04-28 00:51 | 51.11531 | 45.40643 | 33920 ft | 548 kts | 38° |
| 2026-04-28 00:52 | 51.17240 | 45.48703 | 33908 ft | 548 kts | 39° |
| 2026-04-28 00:52 | 51.22938 | 45.56774 | 33905 ft | 547 kts | 39° |
| 2026-04-28 00:53 | 51.28629 | 45.64861 | 33894 ft | 547 kts | 39° |
| 2026-04-28 00:53 | 51.34313 | 45.72968 | 33898 ft | 547 kts | 39° |
| 2026-04-28 00:54 | 51.39990 | 45.81094 | 33888 ft | 547 kts | 39° |
| 2026-04-28 00:54 | 51.45650 | 45.89224 | 33884 ft | 547 kts | 39° |
| 2026-04-28 00:55 | 51.51305 | 45.97374 | 33880 ft | 546 kts | 40° |
| 2026-04-28 00:55 | 51.56897 | 46.05455 | 33885 ft | 546 kts | 39° |
| 2026-04-28 00:56 | 51.62643 | 46.13500 | 33885 ft | 545 kts | 38° |
| 2026-04-28 00:56 | 51.68402 | 46.21461 | 33885 ft | 545 kts | 39° |
| 2026-04-28 00:57 | 51.74131 | 46.29470 | 33891 ft | 545 kts | 39° |
| 2026-04-28 00:57 | 51.79842 | 46.37553 | 33880 ft | 545 kts | 41° |
| 2026-04-28 00:58 | 51.84937 | 46.46636 | 33869 ft | 547 kts | 52° |
| 2026-04-28 00:58 | 51.89532 | 46.56461 | 33864 ft | 547 kts | 52° |
| 2026-04-28 00:59 | 51.94196 | 46.66198 | 33861 ft | 547 kts | 52° |
| 2026-04-28 00:59 | 51.98868 | 46.75969 | 33855 ft | 548 kts | 52° |
| 2026-04-28 01:00 | 52.03482 | 46.85710 | 33858 ft | 548 kts | 52° |
| 2026-04-28 01:00 | 52.08124 | 46.95545 | 33856 ft | 548 kts | 52° |
| 2026-04-28 01:01 | 52.12763 | 47.05403 | 33859 ft | 549 kts | 52° |
| 2026-04-28 01:01 | 52.17401 | 47.15289 | 33854 ft | 549 kts | 53° |
| 2026-04-28 01:02 | 52.22036 | 47.25201 | 33857 ft | 549 kts | 53° |
| 2026-04-28 01:02 | 52.26663 | 47.35131 | 33862 ft | 550 kts | 53° |
| 2026-04-28 01:03 | 52.31284 | 47.45086 | 33863 ft | 550 kts | 53° |
| 2026-04-28 01:03 | 52.35903 | 47.55072 | 33862 ft | 551 kts | 53° |
| 2026-04-28 01:04 | 52.40522 | 47.65086 | 33860 ft | 551 kts | 53° |
| 2026-04-28 01:04 | 52.45129 | 47.75114 | 33864 ft | 551 kts | 53° |
| 2026-04-28 01:05 | 52.49736 | 47.85186 | 33859 ft | 551 kts | 53° |
| 2026-04-28 01:05 | 52.54289 | 47.95179 | 33861 ft | 552 kts | 54° |
| 2026-04-28 01:06 | 52.58879 | 48.05291 | 33862 ft | 552 kts | 54° |
| 2026-04-28 01:06 | 52.63475 | 48.15456 | 33857 ft | 552 kts | 54° |
| 2026-04-28 01:07 | 52.68061 | 48.25643 | 33850 ft | 551 kts | 54° |
| 2026-04-28 01:07 | 52.72584 | 48.35731 | 33855 ft | 551 kts | 54° |
| 2026-04-28 01:08 | 52.77144 | 48.45943 | 33859 ft | 551 kts | 54° |
| 2026-04-28 01:08 | 52.81683 | 48.56148 | 33861 ft | 552 kts | 54° |
| 2026-04-28 01:09 | 52.86227 | 48.66406 | 33861 ft | 552 kts | 55° |
| 2026-04-28 01:09 | 52.90759 | 48.76679 | 33862 ft | 552 kts | 55° |
| 2026-04-28 01:10 | 52.95280 | 48.86969 | 33863 ft | 552 kts | 55° |
| 2026-04-28 01:10 | 52.99786 | 48.97331 | 33862 ft | 553 kts | 56° |
| 2026-04-28 01:11 | 53.04243 | 49.07632 | 33863 ft | 553 kts | 56° |
| 2026-04-28 01:11 | 53.08734 | 49.18034 | 33859 ft | 553 kts | 56° |
| 2026-04-28 01:12 | 53.13222 | 49.28442 | 33856 ft | 553 kts | 56° |
| 2026-04-28 01:12 | 53.17707 | 49.38865 | 33851 ft | 553 kts | 56° |
| 2026-04-28 01:13 | 53.22174 | 49.49296 | 33848 ft | 553 kts | 56° |
| 2026-04-28 01:13 | 53.28873 | 49.65026 | 33840 ft | 554 kts | 56° |
| 2026-04-28 01:14 | 53.33314 | 49.75508 | 33845 ft | 554 kts | 56° |
| 2026-04-28 01:14 | 53.37769 | 49.86068 | 33836 ft | 554 kts | 57° |
| 2026-04-28 01:15 | 53.42159 | 49.96519 | 33834 ft | 554 kts | 57° |
| 2026-04-28 01:15 | 53.46577 | 50.07079 | 33833 ft | 553 kts | 57° |
| 2026-04-28 01:16 | 53.50992 | 50.17673 | 33824 ft | 554 kts | 57° |
| 2026-04-28 01:16 | 53.55396 | 50.28320 | 33829 ft | 554 kts | 57° |
| 2026-04-28 01:17 | 53.59782 | 50.38999 | 33831 ft | 554 kts | 58° |
| 2026-04-28 01:17 | 53.64171 | 50.49728 | 33829 ft | 555 kts | 58° |
| 2026-04-28 01:18 | 53.68541 | 50.60452 | 33837 ft | 555 kts | 58° |
| 2026-04-28 01:18 | 53.72916 | 50.71230 | 33846 ft | 556 kts | 58° |
| 2026-04-28 01:19 | 53.76543 | 50.80202 | 33846 ft | 556 kts | 58° |
| 2026-04-28 01:19 | 53.81630 | 50.92842 | 33847 ft | 556 kts | 58° |
| 2026-04-28 01:20 | 53.85982 | 51.03705 | 33852 ft | 557 kts | 58° |
| 2026-04-28 01:20 | 53.90322 | 51.14584 | 33848 ft | 557 kts | 58° |
| 2026-04-28 01:21 | 53.94625 | 51.25419 | 33851 ft | 557 kts | 58° |
| 2026-04-28 01:21 | 53.98946 | 51.36344 | 33860 ft | 557 kts | 58° |
| 2026-04-28 01:22 | 54.03489 | 51.47043 | 33862 ft | 559 kts | 53° |
| 2026-04-28 01:22 | 54.08347 | 51.57368 | 33864 ft | 559 kts | 53° |
| 2026-04-28 01:23 | 54.13220 | 51.67704 | 33860 ft | 559 kts | 53° |
| 2026-04-28 01:23 | 54.18019 | 51.78051 | 33865 ft | 559 kts | 54° |
| 2026-04-28 01:24 | 54.22818 | 51.88500 | 33863 ft | 558 kts | 54° |
| 2026-04-28 01:24 | 54.27579 | 51.98904 | 33868 ft | 558 kts | 54° |
| 2026-04-28 01:25 | 54.32359 | 52.09382 | 33877 ft | 558 kts | 54° |
| 2026-04-28 01:25 | 54.37129 | 52.19884 | 33879 ft | 557 kts | 54° |
| 2026-04-28 01:26 | 54.41888 | 52.30400 | 33871 ft | 557 kts | 54° |
| 2026-04-28 01:26 | 54.46601 | 52.40879 | 33873 ft | 557 kts | 54° |
| 2026-04-28 01:27 | 54.51329 | 52.51450 | 33879 ft | 557 kts | 55° |
| 2026-04-28 01:27 | 54.56049 | 52.62047 | 33872 ft | 557 kts | 55° |
| 2026-04-28 01:28 | 54.59969 | 52.70879 | 33867 ft | 557 kts | 55° |
| 2026-04-28 01:28 | 54.64564 | 52.81620 | 33879 ft | 555 kts | 60° |
| 2026-04-28 01:29 | 54.68374 | 52.93172 | 33873 ft | 552 kts | 65° |
| 2026-04-28 01:29 | 54.72027 | 53.04891 | 33867 ft | 552 kts | 65° |
| 2026-04-28 01:30 | 54.75720 | 53.16542 | 33869 ft | 553 kts | 65° |
| 2026-04-28 01:30 | 54.79416 | 53.28128 | 33870 ft | 553 kts | 65° |
| 2026-04-28 01:31 | 54.83116 | 53.39828 | 33863 ft | 553 kts | 65° |
| 2026-04-28 01:31 | 54.86790 | 53.51570 | 33865 ft | 552 kts | 66° |
| 2026-04-28 01:32 | 54.90449 | 53.63308 | 33869 ft | 552 kts | 66° |
| 2026-04-28 01:32 | 54.94098 | 53.75059 | 33877 ft | 552 kts | 66° |
| 2026-04-28 01:33 | 54.97736 | 53.86836 | 33865 ft | 553 kts | 66° |
| 2026-04-28 01:33 | 55.01347 | 53.98581 | 33871 ft | 553 kts | 66° |
| 2026-04-28 01:34 | 55.04987 | 54.10483 | 33868 ft | 553 kts | 67° |
| 2026-04-28 01:34 | 55.08566 | 54.22246 | 33867 ft | 553 kts | 67° |
| 2026-04-28 01:35 | 55.12162 | 54.34121 | 33873 ft | 553 kts | 67° |
| 2026-04-28 01:35 | 55.15745 | 54.46010 | 33880 ft | 553 kts | 68° |
| 2026-04-28 01:36 | 55.19314 | 54.57909 | 33878 ft | 553 kts | 68° |
| 2026-04-28 01:36 | 55.22884 | 54.69843 | 33890 ft | 553 kts | 68° |
| 2026-04-28 01:37 | 55.26440 | 54.81781 | 33888 ft | 553 kts | 68° |
| 2026-04-28 01:37 | 55.29989 | 54.93757 | 33894 ft | 553 kts | 68° |
| 2026-04-28 01:38 | 55.33529 | 55.05749 | 33894 ft | 553 kts | 68° |
| 2026-04-28 01:38 | 55.37029 | 55.17666 | 33890 ft | 553 kts | 68° |
| 2026-04-28 01:39 | 55.40545 | 55.29700 | 33890 ft | 553 kts | 68° |
| 2026-04-28 01:39 | 55.44041 | 55.41748 | 33896 ft | 553 kts | 69° |
| 2026-04-28 01:40 | 55.47510 | 55.53775 | 33901 ft | 553 kts | 69° |
| 2026-04-28 01:40 | 55.50980 | 55.65862 | 33896 ft | 552 kts | 69° |
| 2026-04-28 01:41 | 55.54442 | 55.77979 | 33894 ft | 551 kts | 69° |
| 2026-04-28 01:41 | 55.57881 | 55.90081 | 33894 ft | 550 kts | 69° |
| 2026-04-28 01:42 | 55.61274 | 56.02082 | 33895 ft | 549 kts | 69° |
| 2026-04-28 01:42 | 55.64673 | 56.14169 | 33895 ft | 548 kts | 69° |
| 2026-04-28 01:43 | 55.68037 | 56.26195 | 33902 ft | 546 kts | 69° |
| 2026-04-28 01:43 | 55.71399 | 56.38273 | 33912 ft | 544 kts | 69° |
| 2026-04-28 01:44 | 55.74733 | 56.50317 | 33927 ft | 543 kts | 69° |
| 2026-04-28 01:44 | 55.78048 | 56.62360 | 33919 ft | 542 kts | 70° |
| 2026-04-28 01:45 | 55.81327 | 56.74321 | 33924 ft | 541 kts | 70° |
| 2026-04-28 01:45 | 55.84590 | 56.86266 | 33938 ft | 540 kts | 70° |
| 2026-04-28 01:46 | 55.87888 | 56.98367 | 33934 ft | 539 kts | 70° |
| 2026-04-28 01:46 | 55.91128 | 57.10322 | 33935 ft | 539 kts | 70° |
| 2026-04-28 01:47 | 55.94370 | 57.22355 | 33944 ft | 539 kts | 70° |
| 2026-04-28 01:47 | 55.97604 | 57.34424 | 33948 ft | 539 kts | 70° |
| 2026-04-28 01:48 | 56.00790 | 57.46457 | 33955 ft | 538 kts | 71° |
| 2026-04-28 01:48 | 56.03979 | 57.58580 | 33941 ft | 539 kts | 71° |
| 2026-04-28 01:49 | 56.07154 | 57.70702 | 33938 ft | 539 kts | 71° |
| 2026-04-28 01:49 | 56.10305 | 57.82786 | 33947 ft | 539 kts | 71° |
| 2026-04-28 01:50 | 56.13463 | 57.94961 | 33943 ft | 538 kts | 71° |
| 2026-04-28 01:50 | 56.16621 | 58.07158 | 33951 ft | 538 kts | 71° |
| 2026-04-28 01:51 | 56.19767 | 58.19357 | 33949 ft | 538 kts | 71° |
| 2026-04-28 01:51 | 56.22901 | 58.31581 | 33951 ft | 538 kts | 71° |
| 2026-04-28 01:52 | 56.25988 | 58.43692 | 33955 ft | 538 kts | 71° |
| 2026-04-28 01:52 | 56.29100 | 58.55958 | 33953 ft | 538 kts | 71° |
| 2026-04-28 01:53 | 56.32197 | 58.68238 | 33943 ft | 538 kts | 71° |
| 2026-04-28 01:53 | 56.35286 | 58.80549 | 33943 ft | 539 kts | 71° |
| 2026-04-28 01:54 | 56.38362 | 58.92877 | 33931 ft | 539 kts | 71° |
| 2026-04-28 01:54 | 56.41429 | 59.05234 | 33929 ft | 539 kts | 71° |
| 2026-04-28 01:55 | 56.44516 | 59.17605 | 33925 ft | 541 kts | 70° |
| 2026-04-28 01:55 | 56.47721 | 59.29915 | 33917 ft | 541 kts | 70° |
| 2026-04-28 01:56 | 56.50900 | 59.42105 | 33908 ft | 541 kts | 70° |
| 2026-04-28 01:56 | 56.54082 | 59.54474 | 33900 ft | 540 kts | 70° |
| 2026-04-28 01:57 | 56.57233 | 59.66837 | 33904 ft | 540 kts | 70° |
| 2026-04-28 01:57 | 56.60370 | 59.79209 | 33916 ft | 539 kts | 70° |
| 2026-04-28 01:58 | 56.63485 | 59.91548 | 33906 ft | 539 kts | 70° |
| 2026-04-28 01:58 | 56.66598 | 60.03903 | 33911 ft | 538 kts | 70° |
| 2026-04-28 01:59 | 56.69715 | 60.16269 | 33912 ft | 536 kts | 70° |
| 2026-04-28 01:59 | 56.72806 | 60.28610 | 33921 ft | 535 kts | 71° |
| 2026-04-28 02:00 | 56.75819 | 60.40878 | 33921 ft | 534 kts | 71° |
| 2026-04-28 02:00 | 56.78822 | 60.53259 | 33933 ft | 532 kts | 71° |
| 2026-04-28 02:01 | 56.81814 | 60.65626 | 33934 ft | 532 kts | 71° |
| 2026-04-28 02:01 | 56.84777 | 60.77920 | 33928 ft | 531 kts | 71° |
| 2026-04-28 02:02 | 56.87989 | 60.90067 | 33931 ft | 536 kts | 60° |
| 2026-04-28 02:02 | 56.92986 | 61.00172 | 33950 ft | 544 kts | 40° |
| 2026-04-28 02:03 | 56.99403 | 61.07570 | 33944 ft | 546 kts | 30° |
| 2026-04-28 02:03 | 57.06013 | 61.14520 | 33936 ft | 546 kts | 31° |
| 2026-04-28 02:04 | 57.12547 | 61.21679 | 33932 ft | 546 kts | 32° |
| 2026-04-28 02:04 | 57.19043 | 61.28950 | 33941 ft | 546 kts | 32° |
| 2026-04-28 02:05 | 57.25435 | 61.36541 | 33932 ft | 543 kts | 41° |
| 2026-04-28 02:05 | 57.28105 | 61.41388 | 33951 ft | 539 kts | 53° |
| 2026-04-28 02:05 | 57.30331 | 61.46925 | 33947 ft | 535 kts | 62° |
| 2026-04-28 02:06 | 57.33408 | 61.59275 | 33952 ft | 527 kts | 73° |
| 2026-04-28 02:06 | 57.36078 | 61.71877 | 33951 ft | 529 kts | 73° |
| 2026-04-28 02:07 | 57.38843 | 61.84543 | 33964 ft | 531 kts | 72° |
| 2026-04-28 02:07 | 57.41655 | 61.97231 | 33963 ft | 532 kts | 72° |
| 2026-04-28 02:08 | 57.44450 | 62.09927 | 33967 ft | 532 kts | 72° |
| 2026-04-28 02:08 | 57.47224 | 62.22662 | 33971 ft | 531 kts | 73° |
| 2026-04-28 02:09 | 57.49789 | 62.35513 | 33974 ft | 529 kts | 75° |
| 2026-04-28 02:09 | 57.52237 | 62.48405 | 33982 ft | 528 kts | 75° |
| 2026-04-28 02:10 | 57.54688 | 62.61286 | 33994 ft | 527 kts | 75° |
| 2026-04-28 02:10 | 57.57134 | 62.74064 | 33998 ft | 527 kts | 74° |
| 2026-04-28 02:11 | 57.59590 | 62.86941 | 33994 ft | 526 kts | 74° |
| 2026-04-28 02:11 | 57.62017 | 62.99755 | 34008 ft | 525 kts | 74° |
| 2026-04-28 02:12 | 57.64439 | 63.12646 | 34018 ft | 525 kts | 74° |
| 2026-04-28 02:12 | 57.66819 | 63.25400 | 34024 ft | 525 kts | 74° |
| 2026-04-28 02:13 | 57.69209 | 63.38295 | 34028 ft | 524 kts | 74° |
| 2026-04-28 02:13 | 57.71570 | 63.51116 | 34030 ft | 524 kts | 74° |
| 2026-04-28 02:14 | 57.73924 | 63.63989 | 34032 ft | 524 kts | 74° |
| 2026-04-28 02:14 | 57.76272 | 63.76916 | 34039 ft | 524 kts | 74° |
| 2026-04-28 02:15 | 57.79378 | 63.94154 | 34048 ft | 524 kts | 74° |
| 2026-04-28 02:16 | 57.81700 | 64.07137 | 34051 ft | 524 kts | 74° |
| 2026-04-28 02:16 | 57.83605 | 64.20266 | 34056 ft | 520 kts | 83° |
| 2026-04-28 02:17 | 57.84797 | 64.33643 | 34065 ft | 519 kts | 84° |
| 2026-04-28 02:17 | 57.85943 | 64.47032 | 34065 ft | 520 kts | 84° |
| 2026-04-28 02:18 | 57.87119 | 64.60421 | 34066 ft | 520 kts | 83° |
| 2026-04-28 02:18 | 57.88302 | 64.73764 | 34078 ft | 520 kts | 83° |
| 2026-04-28 02:19 | 57.89481 | 64.87204 | 34080 ft | 520 kts | 83° |
| 2026-04-28 02:19 | 57.90633 | 65.00535 | 34080 ft | 520 kts | 83° |
| 2026-04-28 02:20 | 57.91775 | 65.13950 | 34093 ft | 520 kts | 83° |
| 2026-04-28 02:20 | 57.92905 | 65.27391 | 34099 ft | 520 kts | 83° |
| 2026-04-28 02:21 | 57.94021 | 65.40840 | 34096 ft | 520 kts | 83° |
| 2026-04-28 02:21 | 57.95121 | 65.54288 | 34101 ft | 520 kts | 83° |
| 2026-04-28 02:22 | 57.96209 | 65.67752 | 34117 ft | 520 kts | 83° |
| 2026-04-28 02:22 | 57.97283 | 65.81234 | 34121 ft | 520 kts | 83° |
| 2026-04-28 02:23 | 57.98344 | 65.94724 | 34124 ft | 520 kts | 83° |
| 2026-04-28 02:23 | 57.99366 | 66.08208 | 34122 ft | 519 kts | 84° |
| 2026-04-28 02:24 | 58.00364 | 66.21683 | 34134 ft | 519 kts | 84° |
| 2026-04-28 02:24 | 58.01354 | 66.35207 | 34142 ft | 519 kts | 84° |
| 2026-04-28 02:25 | 58.02324 | 66.48611 | 34144 ft | 519 kts | 84° |
| 2026-04-28 02:25 | 58.03286 | 66.62108 | 34151 ft | 519 kts | 84° |
| 2026-04-28 02:26 | 58.04235 | 66.75629 | 34154 ft | 519 kts | 83° |
| 2026-04-28 02:26 | 58.05171 | 66.89148 | 34160 ft | 519 kts | 83° |
| 2026-04-28 02:27 | 58.06128 | 67.02699 | 34167 ft | 520 kts | 83° |
| 2026-04-28 02:27 | 58.07083 | 67.16243 | 34171 ft | 520 kts | 83° |
| 2026-04-28 02:28 | 58.08018 | 67.29776 | 34173 ft | 520 kts | 83° |
| 2026-04-28 02:28 | 58.08937 | 67.43342 | 34179 ft | 520 kts | 83° |
| 2026-04-28 02:29 | 58.09843 | 67.56892 | 34183 ft | 520 kts | 83° |
| 2026-04-28 02:29 | 58.10719 | 67.70458 | 34190 ft | 520 kts | 83° |
| 2026-04-28 02:30 | 58.11560 | 67.83945 | 34197 ft | 520 kts | 83° |
| 2026-04-28 02:30 | 58.12395 | 67.97519 | 34200 ft | 520 kts | 83° |
| 2026-04-28 02:31 | 58.13223 | 68.11128 | 34204 ft | 520 kts | 83° |
| 2026-04-28 02:31 | 58.14530 | 68.24511 | 34213 ft | 517 kts | 70° |
| 2026-04-28 02:32 | 58.17672 | 68.36669 | 34216 ft | 514 kts | 52° |
| 2026-04-28 02:32 | 58.22049 | 68.47380 | 34220 ft | 513 kts | 49° |
| 2026-04-28 02:33 | 58.26470 | 68.58026 | 34219 ft | 514 kts | 49° |
| 2026-04-28 02:33 | 58.30815 | 68.68812 | 34227 ft | 514 kts | 50° |
| 2026-04-28 02:34 | 58.35116 | 68.79613 | 34216 ft | 514 kts | 50° |
| 2026-04-28 02:34 | 58.39429 | 68.90474 | 34228 ft | 513 kts | 50° |
| 2026-04-28 02:35 | 58.43719 | 69.01367 | 34232 ft | 513 kts | 50° |
| 2026-04-28 02:35 | 58.47989 | 69.12268 | 34236 ft | 513 kts | 50° |
| 2026-04-28 02:36 | 58.52251 | 69.23192 | 34234 ft | 512 kts | 50° |
| 2026-04-28 02:36 | 58.56504 | 69.34138 | 34238 ft | 511 kts | 50° |
| 2026-04-28 02:37 | 58.60743 | 69.45101 | 34240 ft | 511 kts | 50° |
| 2026-04-28 02:37 | 58.64939 | 69.55999 | 34229 ft | 511 kts | 50° |
| 2026-04-28 02:38 | 58.69147 | 69.66986 | 34235 ft | 511 kts | 50° |
| 2026-04-28 02:38 | 58.73355 | 69.78017 | 34236 ft | 511 kts | 50° |
| 2026-04-28 02:39 | 58.77552 | 69.89075 | 34260 ft | 510 kts | 50° |
| 2026-04-28 02:39 | 58.81720 | 70.00106 | 34244 ft | 510 kts | 50° |
| 2026-04-28 02:40 | 58.85890 | 70.11196 | 34253 ft | 509 kts | 50° |
| 2026-04-28 02:40 | 58.90044 | 70.22294 | 34254 ft | 509 kts | 50° |
| 2026-04-28 02:41 | 58.94156 | 70.33330 | 34256 ft | 509 kts | 50° |
| 2026-04-28 02:41 | 58.98297 | 70.44499 | 34255 ft | 509 kts | 50° |
| 2026-04-28 02:42 | 59.02417 | 70.55662 | 34260 ft | 509 kts | 50° |
| 2026-04-28 02:42 | 59.06527 | 70.66851 | 34263 ft | 508 kts | 50° |
| 2026-04-28 02:43 | 59.10633 | 70.78082 | 34268 ft | 508 kts | 50° |
| 2026-04-28 02:43 | 59.14692 | 70.89238 | 34265 ft | 508 kts | 50° |
| 2026-04-28 02:44 | 59.18796 | 71.00573 | 34268 ft | 508 kts | 50° |
| 2026-04-28 02:44 | 59.22830 | 71.11766 | 34269 ft | 508 kts | 50° |
| 2026-04-28 02:45 | 59.26882 | 71.23064 | 34272 ft | 507 kts | 50° |
| 2026-04-28 02:45 | 59.30919 | 71.34371 | 34275 ft | 507 kts | 50° |
| 2026-04-28 02:46 | 59.34947 | 71.45713 | 34280 ft | 507 kts | 50° |
| 2026-04-28 02:46 | 59.38944 | 71.57102 | 34280 ft | 507 kts | 50° |
| 2026-04-28 02:47 | 59.42926 | 71.68525 | 34272 ft | 506 kts | 50° |
| 2026-04-28 02:47 | 59.46897 | 71.79967 | 34282 ft | 506 kts | 50° |
| 2026-04-28 02:48 | 59.50864 | 71.91440 | 34266 ft | 506 kts | 50° |
| 2026-04-28 02:48 | 59.54810 | 72.02909 | 34272 ft | 505 kts | 50° |
| 2026-04-28 02:49 | 59.58700 | 72.14273 | 34281 ft | 505 kts | 50° |
| 2026-04-28 02:49 | 59.62656 | 72.25884 | 34282 ft | 504 kts | 50° |
| 2026-04-28 02:50 | 59.66495 | 72.37207 | 34287 ft | 504 kts | 50° |
| 2026-04-28 02:50 | 59.70387 | 72.48743 | 34286 ft | 504 kts | 50° |
| 2026-04-28 02:51 | 59.74273 | 72.60316 | 34287 ft | 504 kts | 50° |
| 2026-04-28 02:51 | 59.78141 | 72.71896 | 34291 ft | 503 kts | 50° |
| 2026-04-28 02:52 | 59.81994 | 72.83488 | 34286 ft | 503 kts | 50° |
| 2026-04-28 02:52 | 59.85844 | 72.95125 | 34288 ft | 503 kts | 50° |
| 2026-04-28 02:53 | 59.89673 | 73.06758 | 34289 ft | 502 kts | 51° |
| 2026-04-28 02:53 | 59.93471 | 73.18357 | 34293 ft | 502 kts | 51° |
| 2026-04-28 02:54 | 59.97272 | 73.30022 | 34298 ft | 501 kts | 51° |
| 2026-04-28 02:54 | 60.01065 | 73.41718 | 34295 ft | 501 kts | 51° |
| 2026-04-28 02:55 | 60.04840 | 73.53422 | 34296 ft | 500 kts | 51° |
| 2026-04-28 02:55 | 60.08594 | 73.65115 | 34296 ft | 500 kts | 51° |
| 2026-04-28 02:56 | 60.12346 | 73.76864 | 34296 ft | 499 kts | 51° |
| 2026-04-28 02:56 | 60.16066 | 73.88570 | 34302 ft | 498 kts | 51° |
| 2026-04-28 02:57 | 60.19789 | 74.00345 | 34305 ft | 498 kts | 51° |
| 2026-04-28 02:57 | 60.23488 | 74.12105 | 34293 ft | 498 kts | 51° |
| 2026-04-28 02:58 | 60.27168 | 74.23863 | 34303 ft | 497 kts | 51° |
| 2026-04-28 02:58 | 60.30829 | 74.35618 | 34299 ft | 497 kts | 51° |
| 2026-04-28 02:59 | 60.34524 | 74.47545 | 34299 ft | 497 kts | 51° |
| 2026-04-28 02:59 | 60.38154 | 74.59314 | 34299 ft | 496 kts | 51° |
| 2026-04-28 03:00 | 60.41773 | 74.71057 | 34302 ft | 496 kts | 51° |
| 2026-04-28 03:00 | 60.45424 | 74.82933 | 34299 ft | 496 kts | 51° |
| 2026-04-28 03:01 | 60.48473 | 74.92900 | 34281 ft | 495 kts | 51° |
| 2026-04-28 03:01 | 60.52072 | 75.04728 | 34289 ft | 495 kts | 51° |
| 2026-04-28 03:02 | 60.55672 | 75.16620 | 34316 ft | 494 kts | 51° |
| 2026-04-28 03:02 | 60.59261 | 75.28541 | 34292 ft | 494 kts | 51° |
| 2026-04-28 03:03 | 60.62840 | 75.40486 | 34302 ft | 493 kts | 51° |
| 2026-04-28 03:03 | 60.66390 | 75.52400 | 34293 ft | 493 kts | 51° |
| 2026-04-28 03:04 | 60.69946 | 75.64386 | 34298 ft | 492 kts | 51° |
| 2026-04-28 03:04 | 60.73493 | 75.76315 | 34296 ft | 491 kts | 51° |
| 2026-04-28 03:05 | 60.77062 | 75.88194 | 34289 ft | 491 kts | 51° |
| 2026-04-28 03:05 | 60.80609 | 76.00074 | 34290 ft | 490 kts | 51° |
| 2026-04-28 03:06 | 60.84154 | 76.12013 | 34284 ft | 490 kts | 51° |
| 2026-04-28 03:06 | 60.87689 | 76.23917 | 34273 ft | 489 kts | 51° |
| 2026-04-28 03:07 | 60.91206 | 76.35817 | 34284 ft | 488 kts | 51° |
| 2026-04-28 03:07 | 60.94469 | 76.48142 | 34291 ft | 495 kts | 59° |
| 2026-04-28 03:08 | 60.96699 | 76.61739 | 34319 ft | 503 kts | 67° |
| 2026-04-28 03:08 | 60.98606 | 76.75598 | 34295 ft | 503 kts | 67° |
| 2026-04-28 03:09 | 61.00543 | 76.89476 | 34295 ft | 502 kts | 66° |
| 2026-04-28 03:09 | 61.02500 | 77.03301 | 34295 ft | 502 kts | 66° |
| 2026-04-28 03:10 | 61.04451 | 77.17165 | 34290 ft | 503 kts | 67° |
| 2026-04-28 03:10 | 61.06373 | 77.30950 | 34294 ft | 503 kts | 67° |
| 2026-04-28 03:11 | 61.08271 | 77.44882 | 34290 ft | 504 kts | 68° |
| 2026-04-28 03:11 | 61.10112 | 77.58877 | 34288 ft | 504 kts | 68° |
| 2026-04-28 03:12 | 61.11944 | 77.72894 | 34290 ft | 505 kts | 68° |
| 2026-04-28 03:12 | 61.13761 | 77.86843 | 34293 ft | 505 kts | 68° |
| 2026-04-28 03:13 | 61.15591 | 78.00876 | 34289 ft | 505 kts | 68° |
| 2026-04-28 03:13 | 61.17464 | 78.14995 | 34293 ft | 505 kts | 68° |
| 2026-04-28 03:14 | 61.19314 | 78.29013 | 34288 ft | 505 kts | 68° |
| 2026-04-28 03:14 | 61.21135 | 78.42985 | 34290 ft | 504 kts | 69° |
| 2026-04-28 03:15 | 61.22947 | 78.57045 | 34284 ft | 504 kts | 69° |
| 2026-04-28 03:15 | 61.24744 | 78.71124 | 34287 ft | 504 kts | 69° |
| 2026-04-28 03:16 | 61.26528 | 78.85233 | 34286 ft | 505 kts | 69° |
| 2026-04-28 03:16 | 61.28299 | 78.99365 | 34286 ft | 505 kts | 69° |
| 2026-04-28 03:17 | 61.30055 | 79.13517 | 34287 ft | 505 kts | 70° |
| 2026-04-28 03:17 | 61.32664 | 79.34799 | 34281 ft | 506 kts | 70° |
| 2026-04-28 03:18 | 61.34384 | 79.48998 | 34275 ft | 506 kts | 70° |
| 2026-04-28 03:18 | 61.36081 | 79.63141 | 34288 ft | 506 kts | 70° |
| 2026-04-28 03:19 | 61.37772 | 79.77374 | 34282 ft | 506 kts | 70° |
| 2026-04-28 03:19 | 61.39451 | 79.91646 | 34284 ft | 506 kts | 70° |
| 2026-04-28 03:20 | 61.41113 | 80.05911 | 34280 ft | 506 kts | 71° |
| 2026-04-28 03:20 | 61.42763 | 80.20222 | 34281 ft | 506 kts | 71° |
| 2026-04-28 03:21 | 61.44397 | 80.34541 | 34280 ft | 507 kts | 71° |
| 2026-04-28 03:21 | 61.46014 | 80.48864 | 34278 ft | 507 kts | 71° |
| 2026-04-28 03:22 | 61.47620 | 80.63225 | 34273 ft | 507 kts | 71° |
| 2026-04-28 03:22 | 61.49207 | 80.77565 | 34272 ft | 507 kts | 72° |
| 2026-04-28 03:23 | 61.50782 | 80.91957 | 34272 ft | 507 kts | 72° |
| 2026-04-28 03:23 | 61.52332 | 81.06265 | 34265 ft | 506 kts | 72° |
| 2026-04-28 03:24 | 61.53876 | 81.20675 | 34263 ft | 506 kts | 72° |
| 2026-04-28 03:24 | 61.55402 | 81.35075 | 34264 ft | 506 kts | 72° |
| 2026-04-28 03:25 | 61.56909 | 81.49447 | 34261 ft | 506 kts | 73° |
| 2026-04-28 03:25 | 61.58406 | 81.63885 | 34264 ft | 506 kts | 73° |
| 2026-04-28 03:26 | 61.59886 | 81.78326 | 34250 ft | 506 kts | 73° |
| 2026-04-28 03:26 | 61.61354 | 81.92802 | 34249 ft | 506 kts | 73° |
| 2026-04-28 03:27 | 61.62809 | 82.07317 | 34257 ft | 507 kts | 73° |
| 2026-04-28 03:27 | 61.64241 | 82.21765 | 34253 ft | 507 kts | 74° |
| 2026-04-28 03:28 | 61.65662 | 82.36285 | 34250 ft | 507 kts | 74° |
| 2026-04-28 03:28 | 61.67073 | 82.50864 | 34244 ft | 508 kts | 74° |
| 2026-04-28 03:29 | 61.68467 | 82.65436 | 34247 ft | 508 kts | 74° |
| 2026-04-28 03:29 | 61.69851 | 82.80056 | 34242 ft | 508 kts | 75° |
| 2026-04-28 03:30 | 61.71222 | 82.94696 | 34239 ft | 509 kts | 75° |
| 2026-04-28 03:30 | 61.72574 | 83.09272 | 34235 ft | 509 kts | 75° |
| 2026-04-28 03:31 | 61.73918 | 83.23942 | 34227 ft | 509 kts | 75° |
| 2026-04-28 03:31 | 61.75248 | 83.38626 | 34226 ft | 509 kts | 75° |
| 2026-04-28 03:32 | 61.76565 | 83.53315 | 34230 ft | 509 kts | 75° |
| 2026-04-28 03:32 | 61.78304 | 83.67784 | 34227 ft | 507 kts | 70° |
| 2026-04-28 03:33 | 61.80225 | 83.82124 | 34224 ft | 507 kts | 70° |
| 2026-04-28 03:33 | 61.82113 | 83.96389 | 34217 ft | 507 kts | 71° |
| 2026-04-28 03:34 | 61.83989 | 84.10914 | 34212 ft | 508 kts | 71° |
| 2026-04-28 03:34 | 61.85827 | 84.25390 | 34206 ft | 508 kts | 71° |
| 2026-04-28 03:35 | 61.87630 | 84.39732 | 34209 ft | 509 kts | 72° |
| 2026-04-28 03:35 | 61.89457 | 84.54384 | 34203 ft | 509 kts | 72° |
| 2026-04-28 03:36 | 61.91242 | 84.68838 | 34202 ft | 510 kts | 72° |
| 2026-04-28 03:36 | 61.93024 | 84.83401 | 34197 ft | 510 kts | 72° |
| 2026-04-28 03:37 | 61.94796 | 84.98032 | 34193 ft | 511 kts | 72° |
| 2026-04-28 03:37 | 61.96549 | 85.12649 | 34183 ft | 511 kts | 73° |
| 2026-04-28 03:38 | 61.98281 | 85.27235 | 34186 ft | 512 kts | 73° |
| 2026-04-28 03:38 | 62.00010 | 85.41943 | 34181 ft | 512 kts | 73° |
| 2026-04-28 03:39 | 62.01723 | 85.56666 | 34177 ft | 512 kts | 73° |
| 2026-04-28 03:39 | 62.03421 | 85.71411 | 34173 ft | 512 kts | 73° |
| 2026-04-28 03:40 | 62.05101 | 85.86163 | 34157 ft | 512 kts | 74° |
| 2026-04-28 03:40 | 62.06770 | 86.00958 | 34163 ft | 512 kts | 74° |
| 2026-04-28 03:41 | 62.08419 | 86.15742 | 34167 ft | 512 kts | 74° |
| 2026-04-28 03:41 | 62.10055 | 86.30562 | 34158 ft | 513 kts | 74° |
| 2026-04-28 03:42 | 62.11678 | 86.45418 | 34159 ft | 513 kts | 75° |
| 2026-04-28 03:42 | 62.13271 | 86.60172 | 34145 ft | 513 kts | 75° |
| 2026-04-28 03:43 | 62.14860 | 86.75042 | 34149 ft | 513 kts | 75° |
| 2026-04-28 03:43 | 62.16436 | 86.89964 | 34138 ft | 514 kts | 75° |
| 2026-04-28 03:44 | 62.17996 | 87.04892 | 34132 ft | 514 kts | 75° |
| 2026-04-28 03:44 | 62.19539 | 87.19837 | 34127 ft | 514 kts | 75° |
| 2026-04-28 03:45 | 62.21065 | 87.34786 | 34127 ft | 513 kts | 76° |
| 2026-04-28 03:45 | 62.22574 | 87.49735 | 34127 ft | 513 kts | 76° |
| 2026-04-28 03:46 | 62.23818 | 87.62181 | 34121 ft | 512 kts | 76° |
| 2026-04-28 03:46 | 62.25573 | 87.79545 | 34114 ft | 511 kts | 75° |
| 2026-04-28 03:47 | 62.26928 | 87.91999 | 34114 ft | 511 kts | 75° |
| 2026-04-28 03:47 | 62.28545 | 88.06752 | 34105 ft | 511 kts | 75° |
| 2026-04-28 03:48 | 62.30144 | 88.21629 | 34102 ft | 510 kts | 75° |
| 2026-04-28 03:48 | 62.31710 | 88.36501 | 34102 ft | 510 kts | 75° |
| 2026-04-28 03:49 | 62.33256 | 88.51394 | 34101 ft | 510 kts | 76° |
| 2026-04-28 03:49 | 62.34786 | 88.66287 | 34096 ft | 510 kts | 76° |
| 2026-04-28 03:50 | 62.36300 | 88.81192 | 34093 ft | 510 kts | 76° |
| 2026-04-28 03:50 | 62.37801 | 88.96126 | 34090 ft | 510 kts | 76° |
| 2026-04-28 03:51 | 62.39283 | 89.11062 | 34093 ft | 509 kts | 76° |
| 2026-04-28 03:51 | 62.40751 | 89.26019 | 34088 ft | 509 kts | 76° |
| 2026-04-28 03:52 | 62.42202 | 89.40990 | 34086 ft | 509 kts | 76° |
| 2026-04-28 03:52 | 62.43638 | 89.55979 | 34087 ft | 509 kts | 77° |
| 2026-04-28 03:53 | 62.45046 | 89.70861 | 34081 ft | 509 kts | 77° |
| 2026-04-28 03:53 | 62.46447 | 89.85862 | 34078 ft | 509 kts | 77° |
| 2026-04-28 03:54 | 62.47841 | 90.00961 | 34075 ft | 509 kts | 77° |
| 2026-04-28 03:54 | 62.49200 | 90.15879 | 34072 ft | 509 kts | 77° |
| 2026-04-28 03:55 | 62.50553 | 90.30909 | 34073 ft | 509 kts | 77° |
| 2026-04-28 03:55 | 62.51890 | 90.45966 | 34065 ft | 509 kts | 77° |
| 2026-04-28 03:56 | 62.53212 | 90.61042 | 34065 ft | 509 kts | 78° |
| 2026-04-28 03:56 | 62.54519 | 90.76148 | 34060 ft | 510 kts | 78° |
| 2026-04-28 03:57 | 62.55811 | 90.91278 | 34062 ft | 510 kts | 78° |
| 2026-04-28 03:57 | 62.57079 | 91.06338 | 34048 ft | 511 kts | 78° |
| 2026-04-28 03:58 | 62.58339 | 91.21511 | 34053 ft | 511 kts | 78° |
| 2026-04-28 03:58 | 62.59582 | 91.36691 | 34038 ft | 511 kts | 78° |
| 2026-04-28 03:59 | 62.60810 | 91.51896 | 34044 ft | 512 kts | 78° |
| 2026-04-28 03:59 | 62.62023 | 91.67137 | 34034 ft | 512 kts | 79° |
| 2026-04-28 04:00 | 62.63218 | 91.82366 | 34031 ft | 512 kts | 79° |
| 2026-04-28 04:00 | 62.64400 | 91.97656 | 34043 ft | 512 kts | 79° |
| 2026-04-28 04:01 | 62.65561 | 92.12900 | 34047 ft | 512 kts | 79° |
| 2026-04-28 04:01 | 62.66718 | 92.28253 | 34045 ft | 513 kts | 79° |
| 2026-04-28 04:02 | 62.67840 | 92.43456 | 34040 ft | 513 kts | 79° |
| 2026-04-28 04:02 | 62.68956 | 92.58858 | 34015 ft | 514 kts | 80° |
| 2026-04-28 04:03 | 62.70058 | 92.74268 | 34035 ft | 514 kts | 80° |
| 2026-04-28 04:03 | 62.71146 | 92.89708 | 34011 ft | 515 kts | 80° |
| 2026-04-28 04:04 | 62.72215 | 93.05137 | 34016 ft | 516 kts | 81° |
| 2026-04-28 04:04 | 62.73267 | 93.20576 | 34002 ft | 516 kts | 81° |
| 2026-04-28 04:05 | 62.74305 | 93.36074 | 34008 ft | 517 kts | 81° |
| 2026-04-28 04:05 | 62.75328 | 93.51605 | 33995 ft | 517 kts | 81° |
| 2026-04-28 04:06 | 62.76333 | 93.67150 | 33998 ft | 517 kts | 82° |
| 2026-04-28 04:06 | 62.77323 | 93.82732 | 33988 ft | 518 kts | 82° |
| 2026-04-28 04:07 | 62.78301 | 93.98362 | 33992 ft | 519 kts | 82° |
| 2026-04-28 04:07 | 62.79218 | 94.14012 | 33980 ft | 519 kts | 83° |
| 2026-04-28 04:08 | 62.80070 | 94.29684 | 33986 ft | 519 kts | 83° |
| 2026-04-28 04:08 | 62.80905 | 94.45370 | 33973 ft | 519 kts | 83° |
| 2026-04-28 04:09 | 62.81731 | 94.61037 | 33981 ft | 518 kts | 83° |
| 2026-04-28 04:09 | 62.82539 | 94.76610 | 33964 ft | 518 kts | 84° |
| 2026-04-28 04:10 | 62.83335 | 94.92283 | 33973 ft | 518 kts | 84° |
| 2026-04-28 04:10 | 62.84112 | 95.07953 | 33963 ft | 518 kts | 84° |
| 2026-04-28 04:11 | 62.84872 | 95.23657 | 33977 ft | 518 kts | 84° |
| 2026-04-28 04:11 | 62.85615 | 95.39366 | 33964 ft | 518 kts | 84° |
| 2026-04-28 04:12 | 62.86340 | 95.55087 | 33967 ft | 518 kts | 85° |
| 2026-04-28 04:12 | 62.87044 | 95.70717 | 33952 ft | 518 kts | 85° |
| 2026-04-28 04:13 | 62.87734 | 95.86457 | 33957 ft | 518 kts | 85° |
| 2026-04-28 04:13 | 62.88407 | 96.02181 | 33943 ft | 518 kts | 85° |
| 2026-04-28 04:14 | 62.89062 | 96.17925 | 33953 ft | 518 kts | 85° |
| 2026-04-28 04:14 | 62.89700 | 96.33669 | 33934 ft | 518 kts | 85° |
| 2026-04-28 04:15 | 62.90317 | 96.49349 | 33949 ft | 518 kts | 85° |
| 2026-04-28 04:16 | 62.91213 | 96.72965 | 33942 ft | 518 kts | 86° |
| 2026-04-28 04:16 | 62.91790 | 96.88745 | 33940 ft | 518 kts | 86° |
| 2026-04-28 04:17 | 62.92348 | 97.04507 | 33939 ft | 518 kts | 86° |
| 2026-04-28 04:17 | 62.92888 | 97.20300 | 33945 ft | 518 kts | 86° |
| 2026-04-28 04:18 | 62.93412 | 97.36080 | 33927 ft | 518 kts | 86° |
| 2026-04-28 04:18 | 62.93917 | 97.51862 | 33938 ft | 518 kts | 86° |
| 2026-04-28 04:19 | 62.94405 | 97.67643 | 33933 ft | 517 kts | 86° |
| 2026-04-28 04:19 | 62.94874 | 97.83411 | 33930 ft | 517 kts | 87° |
| 2026-04-28 04:20 | 62.95323 | 97.99090 | 33922 ft | 517 kts | 87° |
| 2026-04-28 04:20 | 62.95758 | 98.14880 | 33918 ft | 517 kts | 87° |
| 2026-04-28 04:21 | 62.96175 | 98.30677 | 33924 ft | 517 kts | 87° |
| 2026-04-28 04:21 | 62.96574 | 98.46460 | 33925 ft | 517 kts | 87° |
| 2026-04-28 04:22 | 62.96955 | 98.62246 | 33917 ft | 517 kts | 87° |
| 2026-04-28 04:22 | 62.97319 | 98.78016 | 33920 ft | 517 kts | 88° |
| 2026-04-28 04:23 | 62.97665 | 98.93804 | 33916 ft | 516 kts | 88° |
| 2026-04-28 04:23 | 62.97993 | 99.09586 | 33913 ft | 517 kts | 88° |
| 2026-04-28 04:24 | 62.98304 | 99.25378 | 33913 ft | 517 kts | 88° |
| 2026-04-28 04:24 | 62.98595 | 99.41068 | 33913 ft | 517 kts | 88° |
| 2026-04-28 04:25 | 62.98871 | 99.56870 | 33908 ft | 517 kts | 88° |
| 2026-04-28 04:25 | 62.99129 | 99.72682 | 33903 ft | 517 kts | 88° |
| 2026-04-28 04:26 | 62.99370 | 99.88506 | 33920 ft | 517 kts | 89° |
| 2026-04-28 04:26 | 62.99593 | 100.04339 | 33899 ft | 517 kts | 89° |
| 2026-04-28 04:27 | 62.99798 | 100.20178 | 33913 ft | 517 kts | 89° |
| 2026-04-28 04:27 | 62.99985 | 100.35966 | 33891 ft | 517 kts | 89° |
| 2026-04-28 04:28 | 63.00154 | 100.51699 | 33903 ft | 517 kts | 89° |
| 2026-04-28 04:28 | 63.00307 | 100.67572 | 33892 ft | 517 kts | 89° |
| 2026-04-28 04:29 | 63.00441 | 100.83369 | 33903 ft | 517 kts | 89° |
| 2026-04-28 04:29 | 63.00558 | 100.99201 | 33888 ft | 517 kts | 89° |
| 2026-04-28 04:30 | 63.00657 | 101.14914 | 33901 ft | 517 kts | 89° |
| 2026-04-28 04:30 | 63.00738 | 101.30751 | 33888 ft | 516 kts | 90° |
| 2026-04-28 04:31 | 63.00802 | 101.46582 | 33900 ft | 516 kts | 90° |
| 2026-04-28 04:31 | 63.00842 | 101.59730 | 33901 ft | 516 kts | 90° |
| 2026-04-28 04:32 | 63.00873 | 101.75515 | 33888 ft | 515 kts | 90° |
| 2026-04-28 04:32 | 63.00887 | 101.91281 | 33890 ft | 515 kts | 90° |
| 2026-04-28 04:33 | 63.00883 | 102.07047 | 33893 ft | 515 kts | 90° |
| 2026-04-28 04:33 | 63.00862 | 102.22778 | 33891 ft | 514 kts | 90° |
| 2026-04-28 04:34 | 63.00823 | 102.38514 | 33879 ft | 514 kts | 90° |
| 2026-04-28 04:34 | 63.00767 | 102.54264 | 33882 ft | 513 kts | 90° |
| 2026-04-28 04:35 | 63.00694 | 102.69967 | 33883 ft | 513 kts | 90° |
| 2026-04-28 04:35 | 63.00603 | 102.85659 | 33880 ft | 513 kts | 90° |
| 2026-04-28 04:36 | 63.00495 | 103.01317 | 33872 ft | 513 kts | 90° |
| 2026-04-28 04:36 | 63.00369 | 103.17094 | 33883 ft | 513 kts | 91° |
| 2026-04-28 04:37 | 63.00227 | 103.32648 | 33877 ft | 513 kts | 91° |
| 2026-04-28 04:37 | 63.00067 | 103.48340 | 33876 ft | 513 kts | 91° |
| 2026-04-28 04:38 | 62.99889 | 103.64080 | 33868 ft | 513 kts | 91° |
| 2026-04-28 04:38 | 62.99693 | 103.79817 | 33867 ft | 513 kts | 91° |
| 2026-04-28 04:39 | 62.99482 | 103.95400 | 33864 ft | 513 kts | 91° |
| 2026-04-28 04:39 | 62.99252 | 104.11118 | 33865 ft | 513 kts | 91° |
| 2026-04-28 04:40 | 62.99004 | 104.26846 | 33859 ft | 513 kts | 91° |
| 2026-04-28 04:40 | 62.98741 | 104.42438 | 33867 ft | 513 kts | 91° |
| 2026-04-28 04:41 | 62.98456 | 104.58269 | 33852 ft | 513 kts | 91° |
| 2026-04-28 04:41 | 62.98157 | 104.73921 | 33854 ft | 512 kts | 91° |
| 2026-04-28 04:42 | 62.97843 | 104.89461 | 33850 ft | 511 kts | 91° |
| 2026-04-28 04:42 | 62.97510 | 105.05078 | 33849 ft | 511 kts | 91° |
| 2026-04-28 04:43 | 62.97162 | 105.20700 | 34218 ft | 518 kts | 96° |
| 2026-04-28 04:43 | 62.96974 | 105.28713 | 34059 ft | 532 kts | 96° |
| 2026-04-28 04:43 | 62.96776 | 105.36892 | 33975 ft | 539 kts | 96° |
| 2026-04-28 04:44 | 62.96371 | 105.53306 | 33872 ft | 535 kts | 96° |
| 2026-04-28 04:44 | 62.95952 | 105.69630 | 33838 ft | 531 kts | 96° |
| 2026-04-28 04:45 | 62.95520 | 105.85677 | 33828 ft | 529 kts | 97° |
| 2026-04-28 04:45 | 62.95066 | 106.01785 | 33823 ft | 528 kts | 97° |
| 2026-04-28 04:46 | 62.94593 | 106.17900 | 33827 ft | 530 kts | 97° |
| 2026-04-28 04:46 | 62.94097 | 106.34098 | 33825 ft | 532 kts | 97° |
| 2026-04-28 04:47 | 62.93585 | 106.50325 | 33826 ft | 534 kts | 97° |
| 2026-04-28 04:47 | 62.93051 | 106.66619 | 33829 ft | 535 kts | 98° |
| 2026-04-28 04:48 | 62.92499 | 106.82920 | 33826 ft | 536 kts | 98° |
| 2026-04-28 04:48 | 62.91929 | 106.99252 | 33825 ft | 536 kts | 98° |
| 2026-04-28 04:49 | 62.91408 | 107.15492 | 33827 ft | 537 kts | 97° |
| 2026-04-28 04:49 | 62.90934 | 107.31825 | 33823 ft | 537 kts | 97° |
| 2026-04-28 04:50 | 62.90443 | 107.48153 | 33824 ft | 536 kts | 97° |
| 2026-04-28 04:50 | 62.89919 | 107.64462 | 33824 ft | 536 kts | 98° |
| 2026-04-28 04:51 | 62.89370 | 107.80754 | 33830 ft | 536 kts | 98° |
| 2026-04-28 04:51 | 62.88802 | 107.97033 | 33810 ft | 536 kts | 98° |
| 2026-04-28 04:52 | 62.88216 | 108.13314 | 33816 ft | 535 kts | 98° |
| 2026-04-28 04:52 | 62.87611 | 108.29602 | 33814 ft | 535 kts | 99° |
| 2026-04-28 04:53 | 62.86989 | 108.45870 | 33817 ft | 536 kts | 99° |
| 2026-04-28 04:53 | 62.86347 | 108.62130 | 33816 ft | 536 kts | 99° |
| 2026-04-28 04:54 | 62.85686 | 108.78400 | 33817 ft | 536 kts | 99° |
| 2026-04-28 04:54 | 62.85005 | 108.94670 | 33812 ft | 536 kts | 99° |
| 2026-04-28 04:55 | 62.84311 | 109.10831 | 33806 ft | 537 kts | 100° |
| 2026-04-28 04:55 | 62.83593 | 109.27093 | 33803 ft | 536 kts | 100° |
| 2026-04-28 04:56 | 62.82857 | 109.43348 | 33798 ft | 536 kts | 100° |
| 2026-04-28 04:56 | 62.82101 | 109.59609 | 33798 ft | 536 kts | 100° |
| 2026-04-28 04:57 | 62.81328 | 109.75819 | 33799 ft | 536 kts | 101° |
| 2026-04-28 04:57 | 62.80538 | 109.92008 | 33795 ft | 535 kts | 101° |
| 2026-04-28 04:58 | 62.79728 | 110.08196 | 33788 ft | 535 kts | 101° |
| 2026-04-28 04:58 | 62.78902 | 110.24320 | 33784 ft | 534 kts | 101° |
| 2026-04-28 04:59 | 62.78059 | 110.40427 | 33787 ft | 533 kts | 101° |
| 2026-04-28 04:59 | 62.77195 | 110.56571 | 33789 ft | 533 kts | 101° |
| 2026-04-28 05:00 | 62.76323 | 110.72507 | 33798 ft | 532 kts | 101° |
| 2026-04-28 05:00 | 62.75426 | 110.88560 | 33786 ft | 532 kts | 101° |
| 2026-04-28 05:01 | 62.74511 | 111.04599 | 33775 ft | 531 kts | 102° |
| 2026-04-28 05:01 | 62.73580 | 111.20585 | 33773 ft | 531 kts | 102° |
| 2026-04-28 05:02 | 62.72632 | 111.36538 | 33764 ft | 530 kts | 102° |
| 2026-04-28 05:02 | 62.71674 | 111.52354 | 33757 ft | 528 kts | 102° |
| 2026-04-28 05:03 | 62.70695 | 111.68228 | 33766 ft | 527 kts | 102° |
| 2026-04-28 05:03 | 62.69700 | 111.84042 | 33746 ft | 526 kts | 102° |
| 2026-04-28 05:04 | 62.68690 | 111.99802 | 33737 ft | 524 kts | 102° |
| 2026-04-28 05:04 | 62.67674 | 112.15388 | 33732 ft | 522 kts | 102° |
| 2026-04-28 05:05 | 62.66637 | 112.31021 | 33731 ft | 521 kts | 102° |
| 2026-04-28 05:05 | 62.65586 | 112.46582 | 33726 ft | 520 kts | 102° |
| 2026-04-28 05:06 | 62.64521 | 112.62127 | 33720 ft | 519 kts | 102° |
| 2026-04-28 05:06 | 62.63438 | 112.77629 | 33715 ft | 518 kts | 102° |
| 2026-04-28 05:07 | 62.62338 | 112.93085 | 33720 ft | 518 kts | 102° |
| 2026-04-28 05:07 | 62.61221 | 113.08564 | 33712 ft | 518 kts | 102° |
| 2026-04-28 05:08 | 62.60090 | 113.24009 | 33704 ft | 518 kts | 102° |
| 2026-04-28 05:08 | 62.58948 | 113.39369 | 33693 ft | 519 kts | 102° |
| 2026-04-28 05:09 | 62.57780 | 113.54833 | 33693 ft | 519 kts | 102° |
| 2026-04-28 05:09 | 62.56593 | 113.70308 | 33694 ft | 520 kts | 102° |
| 2026-04-28 05:10 | 62.55392 | 113.85766 | 33692 ft | 520 kts | 102° |
| 2026-04-28 05:10 | 62.54330 | 114.01275 | 33693 ft | 523 kts | 97° |
| 2026-04-28 05:11 | 62.54339 | 114.17056 | 33691 ft | 525 kts | 88° |
| 2026-04-28 05:11 | 62.54786 | 114.32860 | 33700 ft | 525 kts | 88° |
| 2026-04-28 05:12 | 62.55191 | 114.48682 | 33691 ft | 526 kts | 88° |
| 2026-04-28 05:12 | 62.55536 | 114.64489 | 33697 ft | 526 kts | 88° |
| 2026-04-28 05:13 | 62.55850 | 114.80219 | 33690 ft | 525 kts | 88° |
| 2026-04-28 05:13 | 62.56151 | 114.96055 | 33697 ft | 524 kts | 88° |
| 2026-04-28 05:14 | 62.56438 | 115.11862 | 33703 ft | 523 kts | 88° |
| 2026-04-28 05:14 | 62.56706 | 115.27591 | 33711 ft | 522 kts | 88° |
| 2026-04-28 05:15 | 62.56957 | 115.43340 | 33717 ft | 521 kts | 89° |
| 2026-04-28 05:15 | 62.57186 | 115.58925 | 33724 ft | 520 kts | 89° |
| 2026-04-28 05:16 | 62.57401 | 115.74654 | 33726 ft | 519 kts | 89° |
| 2026-04-28 05:16 | 62.57567 | 115.87636 | 33731 ft | 518 kts | 89° |
| 2026-04-28 05:17 | 62.57835 | 116.11032 | 33737 ft | 516 kts | 89° |
| 2026-04-28 05:17 | 62.57992 | 116.26582 | 33737 ft | 515 kts | 89° |
| 2026-04-28 05:18 | 62.58131 | 116.42121 | 33760 ft | 514 kts | 89° |
| 2026-04-28 05:18 | 62.58253 | 116.57626 | 33754 ft | 513 kts | 89° |
| 2026-04-28 05:19 | 62.58360 | 116.73119 | 33760 ft | 513 kts | 89° |
| 2026-04-28 05:19 | 62.58458 | 116.88586 | 33769 ft | 512 kts | 89° |
| 2026-04-28 05:20 | 62.58572 | 117.03964 | 33770 ft | 512 kts | 89° |
| 2026-04-28 05:20 | 62.58676 | 117.19430 | 33775 ft | 512 kts | 89° |
| 2026-04-28 05:21 | 62.58757 | 117.34884 | 33800 ft | 512 kts | 89° |
| 2026-04-28 05:21 | 62.58819 | 117.50362 | 33794 ft | 512 kts | 89° |
| 2026-04-28 05:22 | 62.58864 | 117.65834 | 33797 ft | 512 kts | 89° |
| 2026-04-28 05:22 | 62.58895 | 117.81298 | 33804 ft | 512 kts | 89° |
| 2026-04-28 05:23 | 62.58905 | 117.96750 | 33813 ft | 512 kts | 89° |
| 2026-04-28 05:23 | 62.58895 | 118.12188 | 33810 ft | 511 kts | 89° |
| 2026-04-28 05:24 | 62.58869 | 118.27522 | 33820 ft | 511 kts | 89° |
| 2026-04-28 05:24 | 62.58828 | 118.43018 | 33830 ft | 510 kts | 89° |
| 2026-04-28 05:25 | 62.58770 | 118.58314 | 33830 ft | 509 kts | 89° |
| 2026-04-28 05:25 | 62.58696 | 118.73674 | 33845 ft | 509 kts | 89° |
| 2026-04-28 05:26 | 62.58607 | 118.89062 | 33836 ft | 508 kts | 89° |
| 2026-04-28 05:26 | 62.58517 | 119.04383 | 33846 ft | 508 kts | 88° |
| 2026-04-28 05:27 | 62.58427 | 119.19708 | 33847 ft | 507 kts | 88° |
| 2026-04-28 05:27 | 62.58319 | 119.35008 | 33854 ft | 507 kts | 88° |
| 2026-04-28 05:28 | 62.58194 | 119.50201 | 33851 ft | 507 kts | 88° |
| 2026-04-28 05:28 | 62.58053 | 119.65490 | 33858 ft | 506 kts | 88° |
| 2026-04-28 05:29 | 62.57909 | 119.80767 | 33855 ft | 506 kts | 88° |
| 2026-04-28 05:29 | 62.57755 | 119.96050 | 33859 ft | 506 kts | 88° |
| 2026-04-28 05:30 | 62.57583 | 120.11327 | 33859 ft | 506 kts | 88° |
| 2026-04-28 05:30 | 62.57393 | 120.26587 | 33857 ft | 506 kts | 88° |
| 2026-04-28 05:31 | 62.57187 | 120.41878 | 33857 ft | 507 kts | 88° |
| 2026-04-28 05:31 | 62.56963 | 120.57143 | 33852 ft | 507 kts | 88° |
| 2026-04-28 05:32 | 62.56723 | 120.72418 | 33853 ft | 507 kts | 88° |
| 2026-04-28 05:32 | 62.56467 | 120.87675 | 33856 ft | 507 kts | 88° |
| 2026-04-28 05:33 | 62.56195 | 121.02935 | 33858 ft | 507 kts | 88° |
| 2026-04-28 05:33 | 62.55907 | 121.18216 | 33860 ft | 506 kts | 88° |
| 2026-04-28 05:34 | 62.55596 | 121.33353 | 33856 ft | 507 kts | 88° |
| 2026-04-28 05:34 | 62.55186 | 121.48618 | 33855 ft | 506 kts | 89° |
| 2026-04-28 05:35 | 62.54738 | 121.63841 | 33858 ft | 506 kts | 89° |
| 2026-04-28 05:35 | 62.54285 | 121.79035 | 33871 ft | 505 kts | 88° |
| 2026-04-28 05:36 | 62.53824 | 121.94224 | 33868 ft | 504 kts | 88° |
| 2026-04-28 05:36 | 62.53349 | 122.09383 | 33874 ft | 504 kts | 88° |
| 2026-04-28 05:37 | 62.52858 | 122.24497 | 33872 ft | 503 kts | 88° |
| 2026-04-28 05:37 | 62.52350 | 122.39611 | 33888 ft | 502 kts | 88° |
| 2026-04-28 05:38 | 62.51828 | 122.54690 | 33876 ft | 502 kts | 88° |
| 2026-04-28 05:38 | 62.51293 | 122.69650 | 33877 ft | 501 kts | 88° |
| 2026-04-28 05:39 | 62.50739 | 122.84677 | 33881 ft | 500 kts | 88° |
| 2026-04-28 05:39 | 62.50171 | 122.99651 | 33888 ft | 499 kts | 88° |
| 2026-04-28 05:40 | 62.49587 | 123.14654 | 33893 ft | 499 kts | 88° |
| 2026-04-28 05:40 | 62.48987 | 123.29602 | 33893 ft | 499 kts | 88° |
| 2026-04-28 05:41 | 62.48372 | 123.44549 | 33893 ft | 498 kts | 88° |
| 2026-04-28 05:41 | 62.47746 | 123.59386 | 33879 ft | 498 kts | 88° |
| 2026-04-28 05:42 | 62.47099 | 123.74370 | 33888 ft | 498 kts | 87° |
| 2026-04-28 05:42 | 62.46443 | 123.89258 | 33890 ft | 497 kts | 87° |
| 2026-04-28 05:43 | 62.45802 | 124.04049 | 33894 ft | 497 kts | 87° |
| 2026-04-28 05:43 | 62.45151 | 124.18925 | 33891 ft | 497 kts | 87° |
| 2026-04-28 05:44 | 62.44481 | 124.33803 | 33896 ft | 498 kts | 87° |
| 2026-04-28 05:44 | 62.43794 | 124.48683 | 33896 ft | 499 kts | 87° |
| 2026-04-28 05:45 | 62.43087 | 124.63571 | 33892 ft | 499 kts | 86° |